Time;durP1;ratioP1;P1;durP2;ratioP2;P2;SDS_P1;SDS_P2;PMS_P1;PMS_P2;Temp;Humidity;BMP_temperature;BMP_pressure;BME280_temperature;BME280_humidity;BME280_pressure;Samples;Min_cycle;Max_cycle;Signal;HPM_P1;HPM_P2
2022/03/20 00:02:20;;;;;;;9.50;5.73;;;;;;;-3.50;65.84;102782.09;5011874;28;20115;-82
2022/03/20 00:04:46;;;;;;;12.63;6.70;;;;;;;-3.09;65.74;102842.13;5010204;28;20109;-78
2022/03/20 00:07:11;;;;;;;8.73;5.20;;;;;;;-3.10;65.51;102863.06;5011507;28;20537;-79
2022/03/20 00:09:39;;;;;;;9.27;5.60;;;;;;;-3.00;65.90;102856.69;5011731;28;20041;-79
2022/03/20 00:12:05;;;;;;;10.70;4.90;;;;;;;-3.02;65.48;102861.50;5011460;28;20391;-80
2022/03/20 00:14:31;;;;;;;8.83;5.53;;;;;;;-2.94;65.43;102857.44;5011724;28;20029;-80
2022/03/20 00:16:56;;;;;;;8.87;5.30;;;;;;;-2.93;65.57;102856.75;5011734;28;20431;-80
2022/03/20 00:19:22;;;;;;;9.83;5.57;;;;;;;-2.97;65.63;102846.94;5011436;28;20110;-80
2022/03/20 00:21:47;;;;;;;10.33;5.60;;;;;;;-2.99;65.56;102840.78;5009737;28;20026;-80
2022/03/20 00:24:13;;;;;;;9.93;5.60;;;;;;;-2.95;65.98;102853.13;5011485;28;20034;-81
2022/03/20 00:26:39;;;;;;;24.63;13.50;;;;;;;-2.92;65.48;102848.44;5011369;28;20108;-80
2022/03/20 00:29:06;;;;;;;14.37;8.87;;;;;;;-2.86;64.60;102833.19;5009974;28;20026;-81
2022/03/20 00:31:33;;;;;;;10.60;6.57;;;;;;;-2.73;64.24;102836.56;5011266;28;20040;-81
2022/03/20 00:33:59;;;;;;;15.40;9.03;;;;;;;-2.63;64.22;102837.03;5009805;28;20568;-80
2022/03/20 00:36:25;;;;;;;22.10;16.83;;;;;;;-2.75;63.92;102827.88;5011026;28;20124;-83
2022/03/20 00:38:51;;;;;;;12.60;7.17;;;;;;;-2.60;63.26;102849.16;5011341;28;20419;-82
2022/03/20 00:41:16;;;;;;;9.37;5.53;;;;;;;-2.47;62.89;102847.50;5009916;28;20420;-79
2022/03/20 00:43:43;;;;;;;10.63;5.67;;;;;;;-2.49;62.96;102822.72;5010985;28;20041;-82
2022/03/20 00:46:09;;;;;;;8.77;5.60;;;;;;;-2.64;62.89;102806.50;5011495;28;20029;-81
2022/03/20 00:48:35;;;;;;;11.93;5.40;;;;;;;-2.48;62.92;102819.47;5010982;28;20452;-83
2022/03/20 00:51:03;;;;;;;9.37;5.80;;;;;;;-2.41;62.06;102841.41;5010468;28;20416;-83
2022/03/20 00:53:30;;;;;;;9.23;4.68;;;;;;;-2.53;62.75;102831.53;5011016;28;20126;-82
2022/03/20 00:55:56;;;;;;;7.87;5.33;;;;;;;-2.77;63.27;102799.88;5009493;28;20030;-81
2022/03/20 00:58:21;;;;;;;9.03;4.87;;;;;;;-3.03;63.59;102757.72;5010357;28;20028;-78
2022/03/20 01:00:47;;;;;;;7.77;4.93;;;;;;;-2.67;63.63;102826.34;5010908;28;20029;-82
2022/03/20 01:03:12;;;;;;;8.10;4.70;;;;;;;-2.81;63.63;102791.72;5010595;28;20033;-83
2022/03/20 01:05:38;;;;;;;10.40;5.20;;;;;;;-2.65;63.43;102820.75;5010785;28;20030;-81
2022/03/20 01:08:03;;;;;;;11.77;5.40;;;;;;;-2.68;63.88;102827.03;5010683;28;20087;-82
2022/03/20 01:10:29;;;;;;;7.63;5.03;;;;;;;-2.71;63.40;102809.84;5008232;28;20025;-80
2022/03/20 01:12:55;;;;;;;11.17;5.33;;;;;;;-2.64;63.14;102821.69;5010670;28;20100;-79
2022/03/20 01:15:21;;;;;;;10.20;6.50;;;;;;;-2.63;62.75;102839.56;5010725;28;20030;-79
2022/03/20 01:17:47;;;;;;;11.77;7.03;;;;;;;-2.63;63.77;102828.53;5009944;28;20040;-79
2022/03/20 01:20:13;;;;;;;11.00;6.50;;;;;;;-2.57;62.57;102831.84;5010244;28;20496;-78
2022/03/20 01:22:40;;;;;;;10.97;6.67;;;;;;;-2.83;62.82;102783.94;5013693;28;20038;-79
2022/03/20 01:25:07;;;;;;;10.60;5.17;;;;;;;-2.55;62.10;102821.94;5024371;28;20037;-79
2022/03/20 01:27:33;;;;;;;10.47;4.90;;;;;;;-2.50;62.68;102825.97;5022222;28;20029;-79
2022/03/20 01:29:58;;;;;;;9.63;5.53;;;;;;;-2.69;62.60;102790.75;5020313;28;20172;-78
2022/03/20 01:32:26;;;;;;;9.20;5.23;;;;;;;-2.50;62.26;102801.56;5019357;28;20026;-79
2022/03/20 01:34:52;;;;;;;11.90;5.37;;;;;;;-2.24;62.20;102825.81;5014761;28;20036;-78
2022/03/20 01:37:18;;;;;;;8.33;5.90;;;;;;;-2.06;62.14;102838.25;5013174;28;20046;-78
2022/03/20 01:39:43;;;;;;;9.20;5.67;;;;;;;-2.00;61.88;102822.94;5014180;28;20385;-80
2022/03/20 01:42:09;;;;;;;9.13;5.63;;;;;;;-1.96;61.82;102820.06;5033799;28;20433;-79
2022/03/20 01:44:36;;;;;;;8.53;5.17;;;;;;;-1.90;61.81;102836.03;5018324;28;20038;-79
2022/03/20 01:47:03;;;;;;;8.87;5.23;;;;;;;-1.82;61.81;102850.56;5030264;28;20029;-79
2022/03/20 01:49:29;;;;;;;10.57;5.57;;;;;;;-1.95;61.85;102843.03;5030461;28;20037;-79
2022/03/20 01:52:24;;;;;;;9.13;5.33;;;;;;;-2.02;61.85;102837.03;5030461;28;20041;-79
2022/03/20 01:54:49;;;;;;;9.53;5.10;;;;;;;-2.00;61.45;102849.16;5030816;28;20452;-78
2022/03/20 01:57:17;;;;;;;10.97;5.00;;;;;;;-2.30;62.49;102825.97;5030668;28;20090;-78
2022/03/20 01:59:44;;;;;;;9.57;5.80;;;;;;;-2.58;63.90;102850.25;5029336;28;20025;-78
2022/03/20 02:02:10;;;;;;;10.67;6.07;;;;;;;-2.81;65.21;102850.75;5030427;28;20025;-79
2022/03/20 02:04:37;;;;;;;9.07;5.77;;;;;;;-2.81;65.61;102859.97;5030217;28;20048;-78
2022/03/20 02:07:04;;;;;;;7.97;4.80;;;;;;;-2.73;65.68;102848.31;5030483;28;20038;-79
2022/03/20 02:09:30;;;;;;;10.40;5.20;;;;;;;-2.71;65.33;102846.88;5031226;28;20041;-78
2022/03/20 02:11:57;;;;;;;8.37;5.20;;;;;;;-2.74;65.46;102847.41;5034731;28;20124;-78
2022/03/20 02:14:23;;;;;;;11.03;5.60;;;;;;;-2.80;65.51;102861.78;5034786;28;20029;-78
2022/03/20 02:16:49;;;;;;;11.90;6.13;;;;;;;-2.91;65.37;102840.16;5031935;28;20038;-78
2022/03/20 02:19:15;;;;;;;9.73;5.87;;;;;;;-3.21;65.78;102809.31;5034793;28;20403;-79
2022/03/20 02:21:46;;;;;;;9.17;5.33;;;;;;;-3.34;67.16;102855.72;5034544;28;20029;-78
2022/03/20 02:24:32;;;;;;;8.83;5.60;;;;;;;-3.88;69.66;102853.66;5034403;28;20072;-78
2022/03/20 02:27:24;;;;;;;12.03;6.37;;;;;;;-3.89;70.34;102851.84;5032591;28;20036;-79
2022/03/20 02:29:56;;;;;;;9.27;5.73;;;;;;;-4.15;71.51;102855.91;5011617;28;20077;-78
2022/03/20 02:32:27;;;;;;;13.47;6.03;;;;;;;-4.27;71.19;102828.34;5011880;28;20598;-79
2022/03/20 02:34:58;;;;;;;10.37;6.40;;;;;;;-3.85;69.99;102848.09;4995419;28;20390;-79
2022/03/20 02:37:25;;;;;;;9.87;6.00;;;;;;;-3.74;68.91;102831.19;5011388;28;20058;-79
2022/03/20 02:39:53;;;;;;;9.90;5.87;;;;;;;-3.47;68.25;102848.13;5011728;28;20041;-79
2022/03/20 02:42:21;;;;;;;9.13;5.35;;;;;;;-3.46;68.12;102839.84;5011790;28;20095;-79
2022/03/20 02:44:53;;;;;;;11.37;5.90;;;;;;;-3.40;67.71;102852.38;5011617;28;20033;-79
2022/03/20 02:47:23;;;;;;;12.10;5.83;;;;;;;-3.36;68.09;102849.53;4994880;28;20535;-79
2022/03/20 02:50:04;;;;;;;11.68;5.90;;;;;;;-3.67;68.62;102794.13;5011434;28;20181;-79
2022/03/20 02:52:41;;;;;;;10.40;6.10;;;;;;;-4.01;69.93;102815.81;5011432;28;20038;-79
2022/03/20 02:55:08;;;;;;;12.37;6.57;;;;;;;-3.99;71.02;102846.28;5011413;28;20096;-80
2022/03/20 02:57:34;;;;;;;9.50;5.30;;;;;;;-3.93;71.09;102853.03;5011458;28;20092;-79
2022/03/20 03:00:04;;;;;;;10.87;6.20;;;;;;;-4.00;70.93;102841.94;5011185;28;20413;-79
2022/03/20 03:02:33;;;;;;;14.20;6.43;;;;;;;-4.01;71.08;102847.66;5011535;28;20038;-79
2022/03/20 03:04:59;;;;;;;12.53;6.63;;;;;;;-3.94;71.80;102856.28;5011345;28;20113;-79
2022/03/20 03:07:31;;;;;;;9.60;5.57;;;;;;;-3.84;70.82;102838.22;5029853;28;20145;-79
2022/03/20 03:12:49;;;;;;;10.23;5.93;;;;;;;-3.76;70.32;102837.63;5011262;28;20065;-79
2022/03/20 03:15:20;;;;;;;9.43;6.23;;;;;;;-3.93;70.31;102824.38;5011024;28;20492;-79
2022/03/20 03:17:49;;;;;;;9.63;5.87;;;;;;;-3.98;70.84;102812.78;5010886;28;20056;-79
2022/03/20 03:20:17;;;;;;;10.20;7.07;;;;;;;-4.28;71.34;102800.41;5010897;28;20034;-79
2022/03/20 03:22:42;;;;;;;11.77;6.67;;;;;;;-4.30;72.11;102833.00;5010760;28;20415;-79
2022/03/20 03:25:08;;;;;;;9.97;5.87;;;;;;;-4.11;72.12;102843.94;5010911;28;20033;-79
2022/03/20 03:27:34;;;;;;;12.57;6.93;;;;;;;-4.08;72.67;102846.84;5010269;28;20118;-79
2022/03/20 03:29:59;;;;;;;10.67;6.30;;;;;;;-4.00;72.24;102854.53;5010686;28;20034;-79
2022/03/20 03:32:25;;;;;;;9.90;5.90;;;;;;;-4.16;72.22;102838.97;5010826;28;20025;-81
2022/03/20 03:37:35;;;;;;;14.87;7.47;;;;;;;-4.54;73.23;102858.31;5009920;28;20455;-81
2022/03/20 03:40:03;;;;;;;8.93;4.60;;;;;;;-5.21;74.13;102838.28;5010531;28;20034;-80
2022/03/20 03:42:32;;;;;;;10.70;6.13;;;;;;;-5.48;76.28;102831.28;5010679;28;20080;-82
2022/03/20 03:44:58;;;;;;;12.23;5.70;;;;;;;-5.42;76.85;102854.78;4993958;28;20107;-79
2022/03/20 03:47:24;;;;;;;11.10;6.47;;;;;;;-5.68;76.92;102831.00;5010251;28;20033;-76
2022/03/20 03:49:50;;;;;;;12.30;6.37;;;;;;;-5.32;77.13;102866.13;5011500;28;20127;-79
2022/03/20 03:52:16;;;;;;;14.43;6.50;;;;;;;-5.15;76.32;102861.81;5012875;28;20030;-80
2022/03/20 03:54:42;;;;;;;13.53;6.77;;;;;;;-5.06;75.43;102824.38;5017972;28;20030;-81
2022/03/20 03:57:07;;;;;;;12.67;5.97;;;;;;;-4.93;74.31;102791.72;5012781;28;20030;-80
2022/03/20 03:59:33;;;;;;;10.80;5.93;;;;;;;-4.65;73.49;102808.94;5011433;28;20042;-80
2022/03/20 04:02:00;;;;;;;9.90;5.67;;;;;;;-4.45;73.41;102831.84;5011259;28;20041;-79
2022/03/20 04:04:26;;;;;;;11.00;6.07;;;;;;;-4.28;73.15;102823.13;5011599;28;20042;-80
2022/03/20 04:06:51;;;;;;;9.17;5.70;;;;;;;-4.12;71.62;102803.38;5011632;28;20064;-79
2022/03/20 04:09:16;;;;;;;12.90;6.57;;;;;;;-3.76;70.93;102850.25;5011693;28;20487;-79
2022/03/20 04:11:42;;;;;;;11.40;6.13;;;;;;;-3.68;69.61;102848.72;5011465;28;20026;-80
2022/03/20 04:14:08;;;;;;;11.70;6.67;;;;;;;-3.75;69.23;102844.50;5011981;28;20461;-82
2022/03/20 04:16:34;;;;;;;9.20;5.53;;;;;;;-3.66;69.30;102861.56;5011863;28;20033;-84
2022/03/20 04:18:59;;;;;;;10.93;6.60;;;;;;;-3.87;70.54;102847.91;5011471;28;20034;-79
2022/03/20 04:21:24;;;;;;;11.57;7.47;;;;;;;-4.08;70.74;102846.84;5011580;28;20032;-79
2022/03/20 04:23:50;;;;;;;13.20;6.20;;;;;;;-4.28;71.11;102848.34;5011347;28;20052;-78
2022/03/20 04:26:18;;;;;;;13.47;6.83;;;;;;;-4.48;71.94;102860.78;5011445;28;20083;-79
2022/03/20 04:28:46;;;;;;;9.53;6.00;;;;;;;-4.53;72.39;102862.66;5011542;28;20026;-81
2022/03/20 04:31:15;;;;;;;13.93;6.77;;;;;;;-4.61;73.06;102864.16;5011304;28;20041;-81
2022/03/20 04:33:42;;;;;;;10.80;5.20;;;;;;;-4.40;72.72;102868.66;5010293;28;20447;-85
2022/03/20 04:36:09;;;;;;;11.70;6.90;;;;;;;-4.44;72.68;102853.81;5011279;28;20125;-86
2022/03/20 04:38:36;;;;;;;12.30;6.77;;;;;;;-4.56;72.69;102854.66;5010010;28;20057;-78
2022/03/20 04:41:01;;;;;;;11.07;6.80;;;;;;;-4.45;72.37;102867.16;5011878;28;20124;-79
2022/03/20 04:43:27;;;;;;;9.87;6.27;;;;;;;-4.95;72.83;102831.78;5011821;28;20501;-78
2022/03/20 04:45:53;;;;;;;13.07;7.30;;;;;;;-4.98;74.33;102861.63;5011706;28;20072;-78
2022/03/20 04:59:32;;;;;;;12.43;7.17;;;;;;;-4.91;74.82;102835.66;4989359;28;20121;-79
2022/03/20 05:01:57;;;;;;;12.53;7.60;;;;;;;-4.78;74.50;102850.84;4989341;28;20484;-79
2022/03/20 05:04:23;;;;;;;11.80;7.07;;;;;;;-4.71;74.28;102843.41;4989121;28;20042;-78
2022/03/20 05:06:48;;;;;;;12.13;7.23;;;;;;;-4.43;74.06;102867.34;4989296;28;20045;-79
2022/03/20 05:14:41;;;;;;;22.00;15.20;;;;;;;-4.11;75.99;102885.91;4988980;28;20041;-78
2022/03/20 05:17:09;;;;;;;16.63;9.00;;;;;;;-3.93;76.96;102900.97;4988947;28;20038;-79
2022/03/20 05:19:35;;;;;;;16.87;10.20;;;;;;;-4.08;77.55;102856.94;4988548;28;20056;-79
2022/03/20 05:22:02;;;;;;;17.20;8.43;;;;;;;-4.01;77.00;102858.69;4989037;28;20437;-78
2022/03/20 05:24:28;;;;;;;12.63;6.87;;;;;;;-3.87;78.00;102888.28;4956427;28;20042;-78
2022/03/20 05:26:53;;;;;;;14.50;6.37;;;;;;;-3.76;75.17;102861.97;4988891;28;20432;-79
2022/03/20 05:29:19;;;;;;;12.33;6.07;;;;;;;-3.81;73.64;102800.78;4988943;28;20034;-79
2022/03/20 05:31:46;;;;;;;12.70;7.20;;;;;;;-3.08;71.75;102875.88;5008713;28;20033;-80
2022/03/20 05:34:12;;;;;;;16.73;9.00;;;;;;;-3.05;70.65;102877.88;5010284;28;20022;-79
2022/03/20 05:36:37;;;;;;;14.83;8.57;;;;;;;-2.93;70.16;102888.00;5010736;28;20064;-78
2022/03/20 05:39:03;;;;;;;12.03;6.50;;;;;;;-2.68;70.22;102913.94;5010427;28;20116;-79
2022/03/20 05:41:46;;;;;;;8.93;5.33;;;;;;;-2.61;67.46;102862.53;5011093;28;20108;-78
2022/03/20 05:44:33;;;;;;;12.77;5.97;;;;;;;-2.20;67.32;102887.13;5010078;28;20392;-78
2022/03/20 05:46:59;;;;;;;11.07;5.83;;;;;;;-2.15;66.79;102886.09;5010776;28;20042;-79
2022/03/20 05:49:25;;;;;;;13.10;5.90;;;;;;;-2.24;65.93;102815.69;5021198;28;20029;-79
2022/03/20 05:51:51;;;;;;;11.80;5.70;;;;;;;-1.79;64.26;102861.06;5030559;28;20026;-78
2022/03/20 05:54:17;;;;;;;10.27;6.57;;;;;;;-1.56;64.69;102878.22;5030548;28;20539;-78
2022/03/20 05:59:29;;;;;;;12.87;6.03;;;;;;;-1.20;62.84;102869.91;5030125;28;20087;-78
2022/03/20 06:01:55;;;;;;;9.47;5.60;;;;;;;-1.04;60.62;102860.94;5030619;28;20025;-78
2022/03/20 06:04:21;;;;;;;7.73;4.50;;;;;;;-0.83;59.78;102859.22;5029881;28;20464;-75
2022/03/20 06:06:50;;;;;;;10.23;5.30;;;;;;;-0.94;58.87;102817.31;5030360;28;20034;-75
2022/03/20 06:09:16;;;;;;;57.33;16.92;;;;;;;-0.58;58.61;102850.38;5030353;28;20621;-76
2022/03/20 06:11:42;;;;;;;9.20;4.93;;;;;;;-0.29;58.12;102878.34;5029735;28;20036;-76
2022/03/20 06:14:08;;;;;;;11.27;5.40;;;;;;;-0.18;57.85;102872.91;5030188;28;20021;-79
2022/03/20 06:16:35;;;;;;;10.77;5.97;;;;;;;-0.31;56.63;102823.97;5030347;28;20519;-75
2022/03/20 06:19:01;;;;;;;10.53;5.50;;;;;;;0.07;56.40;102867.31;5030538;28;20033;-75
2022/03/20 06:21:27;;;;;;;10.87;5.70;;;;;;;0.30;56.18;102877.63;5030238;28;20036;-75
2022/03/20 06:23:54;;;;;;;8.70;5.07;;;;;;;-0.01;53.97;102808.00;5030189;28;20108;-76
2022/03/20 06:26:20;;;;;;;11.50;5.23;;;;;;;0.42;52.92;102871.41;5029896;28;20087;-78
2022/03/20 06:28:46;;;;;;;12.43;6.43;;;;;;;0.43;52.45;102855.44;5027949;28;20458;-79
2022/03/20 06:31:13;;;;;;;10.43;5.17;;;;;;;0.67;51.87;102864.09;5029853;28;20033;-75
2022/03/20 06:33:40;;;;;;;9.43;6.17;;;;;;;0.78;51.62;102856.06;5030216;28;20053;-76
2022/03/20 06:36:09;;;;;;;8.57;4.90;;;;;;;0.85;50.88;102864.41;5030388;28;20021;-75
2022/03/20 06:38:36;;;;;;;10.40;4.55;;;;;;;1.05;48.51;102874.34;5029933;28;20053;-76
2022/03/20 06:41:08;;;;;;;7.33;4.13;;;;;;;1.12;48.73;102857.41;5029810;28;20045;-76
2022/03/20 06:43:38;;;;;;;9.87;4.57;;;;;;;1.24;46.42;102868.03;5029859;28;20035;-78
2022/03/20 06:46:07;;;;;;;8.13;3.50;;;;;;;1.31;44.24;102856.94;5029725;28;20450;-75
2022/03/20 06:48:33;;;;;;;7.85;3.72;;;;;;;1.33;45.10;102840.19;5030061;28;20112;-75
2022/03/20 06:50:59;;;;;;;9.27;5.23;;;;;;;1.60;43.43;102866.94;5030049;28;20037;-75
2022/03/20 06:53:25;;;;;;;6.67;4.20;;;;;;;1.46;44.62;102811.94;5029585;28;20033;-75
2022/03/20 06:55:51;;;;;;;6.43;3.83;;;;;;;1.60;44.39;102826.19;5030827;28;20475;-76
2022/03/20 06:58:17;;;;;;;10.17;4.90;;;;;;;1.94;44.36;102858.84;5033361;28;20465;-75
2022/03/20 07:00:46;;;;;;;8.90;4.50;;;;;;;1.96;42.18;102842.81;5032773;28;20091;-75
2022/03/20 07:03:12;;;;;;;11.03;6.17;;;;;;;1.90;43.60;102809.94;5033556;28;20176;-79
2022/03/20 07:05:39;;;;;;;12.70;5.07;;;;;;;2.22;42.58;102846.56;5033306;28;20083;-78
2022/03/20 07:08:07;;;;;;;17.30;7.07;;;;;;;2.28;43.16;102847.97;5033182;28;20029;-79
2022/03/20 07:10:33;;;;;;;13.23;6.53;;;;;;;2.47;42.10;102849.25;5033362;28;20041;-79
2022/03/20 07:15:45;;;;;;;15.43;6.13;;;;;;;2.15;42.95;102805.88;5033205;28;20032;-76
2022/03/20 07:18:15;;;;;;;12.83;4.83;;;;;;;2.56;43.81;102862.06;5032964;28;20108;-77
2022/03/20 07:20:45;;;;;;;9.33;5.17;;;;;;;2.67;40.94;102841.19;5032868;28;20033;-75
2022/03/20 07:23:12;;;;;;;8.93;4.10;;;;;;;2.75;36.43;102845.47;5033068;28;20109;-77
2022/03/20 07:31:09;;;;;;;10.47;6.43;;;;;;;3.14;37.74;102817.97;5033163;28;20044;-77
2022/03/20 07:33:36;;;;;;;15.93;4.83;;;;;;;3.23;37.16;102829.16;5032558;28;20060;-77
2022/03/20 07:36:04;;;;;;;10.77;6.20;;;;;;;3.41;37.44;102837.84;5031471;28;20124;-78
2022/03/20 07:38:29;;;;;;;9.23;3.97;;;;;;;3.52;35.75;102837.28;5032347;28;20054;-76
2022/03/20 07:40:55;;;;;;;5.97;3.30;;;;;;;3.59;35.32;102835.38;5032852;28;20542;-76
2022/03/20 07:43:20;;;;;;;6.17;3.63;;;;;;;3.29;36.16;102794.06;5031234;28;20032;-76
2022/03/20 07:45:46;;;;;;;6.80;3.53;;;;;;;3.48;37.06;102837.72;5032731;28;20021;-79
2022/03/20 07:48:12;;;;;;;8.37;4.57;;;;;;;3.58;35.94;102839.59;5032721;28;20026;-77
2022/03/20 07:50:38;;;;;;;5.93;3.83;;;;;;;3.63;35.53;102837.53;5032788;28;20396;-76
2022/03/20 07:53:04;;;;;;;7.43;3.67;;;;;;;3.52;34.13;102821.06;5032353;28;20506;-77
2022/03/20 07:55:29;;;;;;;5.73;3.73;;;;;;;3.71;35.45;102827.34;5032681;28;20029;-77
2022/03/20 07:57:56;;;;;;;6.90;4.20;;;;;;;3.77;34.93;102814.28;5024186;28;20446;-76
2022/03/20 08:00:22;;;;;;;8.77;5.57;;;;;;;3.94;34.85;102795.56;5030589;28;20029;-76
2022/03/20 08:02:53;;;;;;;14.82;3.95;;;;;;;4.14;34.23;102815.47;5024854;28;20407;-76
2022/03/20 08:05:20;;;;;;;6.93;4.07;;;;;;;4.11;33.24;102812.63;5019224;28;20033;-76
2022/03/20 08:07:46;;;;;;;7.17;3.70;;;;;;;4.02;33.25;102807.44;5023004;28;20026;-75
2022/03/20 08:10:13;;;;;;;7.53;4.10;;;;;;;4.12;33.46;102799.06;5031255;28;20502;-76
2022/03/20 08:12:40;;;;;;;6.97;3.80;;;;;;;4.45;35.25;102794.59;5031438;28;20025;-76
2022/03/20 08:15:07;;;;;;;9.05;3.97;;;;;;;4.59;34.85;102786.66;5030928;28;20033;-76
2022/03/20 08:17:43;;;;;;;7.75;4.13;;;;;;;4.70;34.04;102768.13;5030778;28;20113;-76
2022/03/20 08:20:09;;;;;;;5.63;3.40;;;;;;;4.74;32.92;102759.09;5027214;28;20030;-76
2022/03/20 08:22:35;;;;;;;6.18;3.33;;;;;;;4.77;32.31;102771.28;5026753;28;20033;-77
2022/03/20 08:25:01;;;;;;;5.80;2.97;;;;;;;4.72;30.44;102757.16;5024788;28;20478;-76
2022/03/20 08:27:27;;;;;;;12.98;3.90;;;;;;;5.08;30.75;102772.59;5027970;28;20049;-76
2022/03/20 08:29:52;;;;;;;7.60;4.18;;;;;;;4.80;30.05;102739.22;5025376;28;20552;-77
2022/03/20 08:32:19;;;;;;;8.68;5.22;;;;;;;5.20;31.19;102775.44;5027655;28;20080;-76
2022/03/20 08:34:44;;;;;;;10.75;3.30;;;;;;;5.17;29.52;102764.91;5032922;28;20044;-76
2022/03/20 08:37:10;;;;;;;7.22;3.67;;;;;;;5.13;29.54;102734.63;5028012;28;20053;-74
2022/03/20 08:39:35;;;;;;;6.10;3.10;;;;;;;5.24;28.60;102734.00;5027661;28;20045;-75
2022/03/20 08:42:01;;;;;;;7.80;4.45;;;;;;;5.54;31.32;102732.53;5027557;28;20029;-76
2022/03/20 08:44:28;;;;;;;6.28;3.10;;;;;;;5.44;30.50;102711.94;5011462;28;20061;-75
2022/03/20 08:46:53;;;;;;;10.63;4.88;;;;;;;5.65;29.57;102739.56;5028150;28;20032;-75
2022/03/20 08:49:19;;;;;;;6.65;2.83;;;;;;;5.74;29.48;102751.44;5020147;28;20030;-75
2022/03/20 08:51:45;;;;;;;8.25;3.90;;;;;;;5.75;28.39;102745.56;5011483;28;20415;-73
2022/03/20 08:54:11;;;;;;;6.57;4.20;;;;;;;5.88;30.67;102740.81;5027630;28;20067;-77
2022/03/20 08:56:37;;;;;;;7.55;3.15;;;;;;;5.73;28.80;102700.94;5032183;28;20496;-77
2022/03/20 08:59:02;;;;;;;6.60;4.13;;;;;;;6.18;32.47;102734.19;5024454;28;20037;-77
2022/03/20 09:01:28;;;;;;;7.47;2.67;;;;;;;5.86;27.97;102696.19;5024170;28;20103;-77
2022/03/20 09:03:54;;;;;;;7.10;4.07;;;;;;;6.23;30.86;102732.94;5024255;28;20428;-76
2022/03/20 09:06:20;;;;;;;7.18;3.45;;;;;;;6.25;28.99;102726.25;5029786;28;20033;-77
2022/03/20 09:08:46;;;;;;;6.15;2.80;;;;;;;6.41;28.90;102717.41;5030410;28;20452;-77
2022/03/20 09:11:12;;;;;;;6.28;2.97;;;;;;;6.30;27.37;102672.81;5030367;28;20029;-77
2022/03/20 09:13:38;;;;;;;8.82;2.90;;;;;;;6.18;28.67;102646.97;5021452;28;20129;-77
2022/03/20 09:19:00;;;;;;;5.65;3.28;;;;;;;6.44;27.92;102702.25;5026971;28;20047;-77
2022/03/20 09:21:33;;;;;;;6.55;2.88;;;;;;;6.40;28.91;102685.69;5029467;28;20045;-78
2022/03/20 09:23:59;;;;;;;6.28;3.10;;;;;;;6.75;27.53;102703.34;5028485;28;20168;-77
2022/03/20 09:26:24;;;;;;;8.18;3.30;;;;;;;6.64;28.01;102707.53;5029955;28;20511;-77
2022/03/20 09:28:50;;;;;;;15.50;11.82;;;;;;;6.66;28.16;102699.94;5025994;28;20037;-77
2022/03/20 09:31:16;;;;;;;10.75;7.38;;;;;;;6.68;29.08;102695.88;5027347;28;20025;-77
2022/03/20 09:33:43;;;;;;;6.15;3.13;;;;;;;6.87;28.87;102705.19;5023695;28;20030;-78
2022/03/20 09:36:10;;;;;;;5.18;2.78;;;;;;;6.98;27.07;102696.75;5018284;28;20017;-77
2022/03/20 09:38:38;;;;;;;6.53;3.97;;;;;;;7.09;27.79;102689.97;5025553;28;20119;-77
2022/03/20 09:41:09;;;;;;;5.55;3.30;;;;;;;7.31;27.38;102704.69;5029938;28;20030;-77
2022/03/20 09:43:39;;;;;;;5.82;2.58;;;;;;;7.36;26.60;102696.59;5030149;28;20037;-78
2022/03/20 09:46:05;;;;;;;6.15;2.88;;;;;;;7.42;27.92;102691.97;5029823;28;20076;-78
2022/03/20 09:48:31;;;;;;;5.28;2.97;;;;;;;7.44;27.25;102697.28;5029896;28;20061;-78
2022/03/20 09:51:02;;;;;;;7.65;5.07;;;;;;;7.28;26.24;102677.94;5022735;28;20041;-79
2022/03/20 09:53:29;;;;;;;9.80;5.35;;;;;;;7.17;27.59;102694.13;5010918;28;20374;-79
2022/03/20 09:55:55;;;;;;;8.15;5.10;;;;;;;7.16;26.09;102706.84;5010866;28;20127;-79
2022/03/20 09:58:25;;;;;;;9.20;6.72;;;;;;;7.32;26.80;102688.50;5021871;28;20804;-78
2022/03/20 10:00:51;;;;;;;7.13;2.80;;;;;;;7.42;24.97;102689.41;5029539;28;20025;-81
2022/03/20 10:03:18;;;;;;;8.32;5.03;;;;;;;7.57;26.69;102696.63;5029214;28;20053;-78
2022/03/20 10:05:44;;;;;;;8.52;5.75;;;;;;;7.44;26.24;102666.44;5017589;28;20033;-74
2022/03/20 10:08:17;;;;;;;8.55;4.97;;;;;;;7.55;26.42;102673.38;5015174;28;20447;-76
2022/03/20 10:10:43;;;;;;;7.43;4.65;;;;;;;7.51;27.81;102672.97;5020607;28;20458;-76
2022/03/20 10:13:12;;;;;;;5.72;3.33;;;;;;;7.66;27.36;102663.97;5012768;28;20396;-77
2022/03/20 10:15:42;;;;;;;6.75;3.72;;;;;;;7.90;28.15;102671.94;5021959;28;20030;-77
2022/03/20 10:18:20;;;;;;;7.25;5.10;;;;;;;7.69;26.42;102661.69;5020547;28;20104;-77
2022/03/20 10:20:59;;;;;;;7.10;4.47;;;;;;;7.58;26.63;102654.75;5016750;28;20045;-75
2022/03/20 10:23:39;;;;;;;8.50;3.65;;;;;;;7.65;26.34;102663.84;5026487;28;20028;-76
2022/03/20 10:26:37;;;;;;;6.55;3.28;;;;;;;8.02;26.87;102669.50;5023505;28;20564;-76
2022/03/20 10:29:04;;;;;;;7.82;4.00;;;;;;;8.05;27.31;102670.66;5025234;28;20128;-76
2022/03/20 10:31:29;;;;;;;6.25;3.55;;;;;;;8.25;26.57;102659.44;5025310;28;20508;-77
2022/03/20 10:34:07;;;;;;;5.47;3.30;;;;;;;7.98;25.33;102668.34;5022719;28;20048;-75
2022/03/20 10:36:36;;;;;;;6.10;3.10;;;;;;;8.18;26.38;102670.00;5028441;28;20067;-75
2022/03/20 10:39:01;;;;;;;6.10;3.47;;;;;;;7.98;26.16;102616.03;5030101;28;20061;-77
2022/03/20 10:41:38;;;;;;;5.10;3.10;;;;;;;8.42;26.21;102647.03;5030595;28;20044;-76
2022/03/20 10:44:13;;;;;;;8.23;3.53;;;;;;;8.32;25.78;102599.06;5030300;28;20525;-76
2022/03/20 10:46:39;;;;;;;6.32;3.63;;;;;;;8.64;26.93;102654.84;5013684;28;20037;-77
2022/03/20 10:49:06;;;;;;;6.10;3.45;;;;;;;8.63;26.87;102623.84;5030255;28;20061;-77
2022/03/20 10:54:54;;;;;;;7.82;3.90;;;;;;;8.47;25.58;102627.72;5107288;23;20050;-75
2022/03/20 10:57:20;;;;;;;5.78;3.42;;;;;;;8.09;25.06;102581.78;5032642;28;20118;-76
2022/03/20 11:00:07;;;;;;;8.75;5.25;;;;;;;8.50;26.62;102630.56;5030898;28;20025;-78
2022/03/20 11:02:37;;;;;;;12.32;5.45;;;;;;;8.67;26.47;102626.78;5022425;28;20109;-76
2022/03/20 11:05:03;;;;;;;10.43;6.53;;;;;;;8.64;25.03;102616.22;5030686;28;20033;-78
2022/03/20 11:07:30;;;;;;;8.63;5.47;;;;;;;8.65;24.98;102602.56;5033167;28;20381;-80
2022/03/20 11:09:56;;;;;;;6.57;3.90;;;;;;;8.57;25.82;102612.28;5033822;28;20029;-78
2022/03/20 11:12:33;;;;;;;7.90;5.07;;;;;;;8.70;26.41;102615.81;5033744;28;20460;-78
2022/03/20 11:15:03;;;;;;;11.05;6.90;;;;;;;9.09;25.26;102609.41;5033474;28;20037;-77
2022/03/20 11:17:48;;;;;;;11.70;3.65;;;;;;;9.33;25.05;102583.72;5030919;28;20032;-80
2022/03/20 11:20:15;;;;;;;7.00;4.00;;;;;;;9.47;24.64;102595.06;5032270;28;20044;-79
2022/03/20 11:22:53;;;;;;;8.20;4.28;;;;;;;9.47;24.72;102592.50;5031613;28;20124;-80
2022/03/20 11:25:24;;;;;;;8.32;4.55;;;;;;;9.34;24.19;102612.19;5033026;28;20025;-78
2022/03/20 11:27:55;;;;;;;8.90;4.18;;;;;;;9.58;23.13;102580.41;5033257;28;20025;-78
2022/03/20 11:30:28;;;;;;;6.53;4.38;;;;;;;9.61;24.18;102585.78;5033621;28;20495;-78
2022/03/20 11:32:56;;;;;;;8.57;4.43;;;;;;;9.55;25.85;102571.66;5033162;28;20026;-78
2022/03/20 11:35:25;;;;;;;14.43;5.03;;;;;;;9.23;24.43;102585.59;5033381;28;20031;-78
2022/03/20 11:37:53;;;;;;;10.95;4.18;;;;;;;9.52;25.24;102584.34;5033102;28;20260;-79
2022/03/20 11:40:25;;;;;;;7.68;4.35;;;;;;;9.54;22.82;102559.56;5033669;28;20038;-80
2022/03/20 11:43:13;;;;;;;8.60;4.50;;;;;;;9.47;25.55;102577.03;5031082;28;20041;-79
2022/03/20 11:45:38;;;;;;;8.02;5.18;;;;;;;9.29;24.76;102525.00;5033018;28;20403;-79
2022/03/20 11:48:15;;;;;;;9.23;4.47;;;;;;;9.46;23.81;102568.41;5033298;28;20029;-79
2022/03/20 11:50:45;;;;;;;5.75;3.95;;;;;;;9.67;23.93;102561.38;5033100;28;20036;-80
2022/03/20 11:53:11;;;;;;;;;;;;;;;9.69;23.04;102570.13;5033478;28;20050;-80
2022/03/20 11:55:42;;;;;;;8.02;4.97;;;;;;;9.51;23.72;102543.84;5031663;28;19913;-77
2022/03/20 11:58:24;;;;;;;9.18;4.35;;;;;;;9.66;23.58;102558.69;5033176;28;20128;-80
2022/03/20 12:01:03;;;;;;;8.68;6.30;;;;;;;9.79;26.66;102558.78;5032911;28;20479;-81
2022/03/20 12:03:53;;;;;;;9.45;5.43;;;;;;;9.45;24.57;102515.03;5032899;28;20099;-80
2022/03/20 12:06:18;;;;;;;7.88;4.55;;;;;;;9.45;25.76;102550.25;5033244;28;20032;-80
2022/03/20 12:08:55;;;;;;;8.30;5.40;;;;;;;9.17;25.54;102494.03;5032936;28;20033;-80
2022/03/20 12:11:55;;;;;;;8.88;4.65;;;;;;;9.66;27.58;102543.22;5032829;28;20495;-80